sensor_id;sensor_type;location;lat;lon;timestamp;P1;durP1;ratioP1;P2;durP2;ratioP2
17959;SDS011;9105;53.552;9.980;2023-06-26T00:00:24;17.45;;;15.65;;
17959;SDS011;9105;53.552;9.980;2023-06-26T00:02:50;16.95;;;15.20;;
17959;SDS011;9105;53.552;9.980;2023-06-26T00:05:15;17.48;;;15.88;;
17959;SDS011;9105;53.552;9.980;2023-06-26T00:07:42;17.30;;;15.65;;
17959;SDS011;9105;53.552;9.980;2023-06-26T00:10:08;17.63;;;16.02;;
17959;SDS011;9105;53.552;9.980;2023-06-26T00:12:33;18.17;;;16.35;;
17959;SDS011;9105;53.552;9.980;2023-06-26T00:14:59;18.25;;;16.35;;
17959;SDS011;9105;53.552;9.980;2023-06-26T00:17:24;17.73;;;15.93;;
17959;SDS011;9105;53.552;9.980;2023-06-26T00:19:50;17.92;;;16.13;;
17959;SDS011;9105;53.552;9.980;2023-06-26T00:22:16;19.48;;;17.67;;
17959;SDS011;9105;53.552;9.980;2023-06-26T00:24:41;20.52;;;16.33;;
17959;SDS011;9105;53.552;9.980;2023-06-26T00:27:07;18.42;;;16.50;;
17959;SDS011;9105;53.552;9.980;2023-06-26T00:29:33;18.40;;;16.65;;
17959;SDS011;9105;53.552;9.980;2023-06-26T00:31:58;17.55;;;15.77;;
17959;SDS011;9105;53.552;9.980;2023-06-26T00:34:24;18.55;;;16.80;;
17959;SDS011;9105;53.552;9.980;2023-06-26T00:36:49;18.38;;;16.58;;
17959;SDS011;9105;53.552;9.980;2023-06-26T00:39:15;18.77;;;16.92;;
17959;SDS011;9105;53.552;9.980;2023-06-26T00:41:40;17.80;;;15.88;;
17959;SDS011;9105;53.552;9.980;2023-06-26T00:44:06;19.02;;;17.23;;
17959;SDS011;9105;53.552;9.980;2023-06-26T00:46:31;18.52;;;16.70;;
17959;SDS011;9105;53.552;9.980;2023-06-26T00:49:00;18.95;;;17.13;;
17959;SDS011;9105;53.552;9.980;2023-06-26T00:51:28;19.42;;;17.65;;
17959;SDS011;9105;53.552;9.980;2023-06-26T00:53:54;20.33;;;18.42;;
17959;SDS011;9105;53.552;9.980;2023-06-26T00:56:21;17.83;;;16.20;;
17959;SDS011;9105;53.552;9.980;2023-06-26T00:58:46;18.55;;;16.65;;
17959;SDS011;9105;53.552;9.980;2023-06-26T01:01:12;19.40;;;17.40;;
17959;SDS011;9105;53.552;9.980;2023-06-26T01:03:48;18.77;;;16.98;;
17959;SDS011;9105;53.552;9.980;2023-06-26T01:06:16;19.55;;;17.63;;
17959;SDS011;9105;53.552;9.980;2023-06-26T01:08:45;20.65;;;18.63;;
17959;SDS011;9105;53.552;9.980;2023-06-26T01:11:10;20.80;;;18.90;;
17959;SDS011;9105;53.552;9.980;2023-06-26T01:13:36;20.95;;;18.95;;
17959;SDS011;9105;53.552;9.980;2023-06-26T01:16:02;20.42;;;18.40;;
17959;SDS011;9105;53.552;9.980;2023-06-26T01:18:29;20.33;;;18.30;;
17959;SDS011;9105;53.552;9.980;2023-06-26T01:20:54;21.35;;;19.35;;
17959;SDS011;9105;53.552;9.980;2023-06-26T01:23:35;20.98;;;18.83;;
17959;SDS011;9105;53.552;9.980;2023-06-26T01:26:19;20.48;;;18.38;;
17959;SDS011;9105;53.552;9.980;2023-06-26T01:28:45;19.15;;;17.15;;
17959;SDS011;9105;53.552;9.980;2023-06-26T01:31:12;19.80;;;17.80;;
17959;SDS011;9105;53.552;9.980;2023-06-26T01:33:38;21.17;;;19.02;;
17959;SDS011;9105;53.552;9.980;2023-06-26T01:36:05;21.50;;;19.50;;
17959;SDS011;9105;53.552;9.980;2023-06-26T01:38:31;21.80;;;19.73;;
17959;SDS011;9105;53.552;9.980;2023-06-26T01:40:57;21.40;;;19.23;;
17959;SDS011;9105;53.552;9.980;2023-06-26T01:48:55;20.10;;;18.00;;
17959;SDS011;9105;53.552;9.980;2023-06-26T01:51:27;22.98;;;19.25;;
17959;SDS011;9105;53.552;9.980;2023-06-26T01:53:56;21.65;;;19.65;;
17959;SDS011;9105;53.552;9.980;2023-06-26T01:56:22;21.58;;;19.38;;
17959;SDS011;9105;53.552;9.980;2023-06-26T01:58:48;21.27;;;19.35;;
17959;SDS011;9105;53.552;9.980;2023-06-26T02:01:15;22.23;;;19.83;;
17959;SDS011;9105;53.552;9.980;2023-06-26T02:03:40;21.77;;;19.63;;
17959;SDS011;9105;53.552;9.980;2023-06-26T02:06:08;20.17;;;18.10;;
17959;SDS011;9105;53.552;9.980;2023-06-26T02:08:35;16.00;;;14.45;;
17959;SDS011;9105;53.552;9.980;2023-06-26T02:11:00;23.15;;;20.95;;
17959;SDS011;9105;53.552;9.980;2023-06-26T02:13:26;22.45;;;20.15;;
17959;SDS011;9105;53.552;9.980;2023-06-26T02:15:51;22.38;;;20.27;;
17959;SDS011;9105;53.552;9.980;2023-06-26T02:18:17;22.00;;;19.60;;
17959;SDS011;9105;53.552;9.980;2023-06-26T02:20:43;22.35;;;19.98;;
17959;SDS011;9105;53.552;9.980;2023-06-26T02:23:09;20.70;;;18.77;;
17959;SDS011;9105;53.552;9.980;2023-06-26T02:25:34;21.65;;;19.60;;
17959;SDS011;9105;53.552;9.980;2023-06-26T02:28:00;22.92;;;20.52;;
17959;SDS011;9105;53.552;9.980;2023-06-26T02:30:25;21.25;;;19.25;;
17959;SDS011;9105;53.552;9.980;2023-06-26T02:32:51;21.73;;;19.67;;
17959;SDS011;9105;53.552;9.980;2023-06-26T02:35:16;21.45;;;19.38;;
17959;SDS011;9105;53.552;9.980;2023-06-26T02:37:42;21.45;;;19.35;;
17959;SDS011;9105;53.552;9.980;2023-06-26T02:40:07;21.75;;;19.45;;
17959;SDS011;9105;53.552;9.980;2023-06-26T02:42:34;21.83;;;19.63;;
17959;SDS011;9105;53.552;9.980;2023-06-26T02:45:00;22.63;;;20.20;;
17959;SDS011;9105;53.552;9.980;2023-06-26T02:47:25;19.83;;;17.83;;
17959;SDS011;9105;53.552;9.980;2023-06-26T02:49:51;21.27;;;19.17;;
17959;SDS011;9105;53.552;9.980;2023-06-26T02:52:16;22.50;;;20.27;;
17959;SDS011;9105;53.552;9.980;2023-06-26T02:54:41;23.35;;;21.13;;
17959;SDS011;9105;53.552;9.980;2023-06-26T02:57:07;22.40;;;20.20;;
17959;SDS011;9105;53.552;9.980;2023-06-26T02:59:32;22.08;;;19.88;;
17959;SDS011;9105;53.552;9.980;2023-06-26T03:01:59;21.00;;;18.80;;
17959;SDS011;9105;53.552;9.980;2023-06-26T03:04:25;21.45;;;19.20;;
17959;SDS011;9105;53.552;9.980;2023-06-26T03:06:50;20.42;;;18.58;;
17959;SDS011;9105;53.552;9.980;2023-06-26T03:09:16;20.17;;;18.17;;
17959;SDS011;9105;53.552;9.980;2023-06-26T03:11:42;20.70;;;18.73;;
17959;SDS011;9105;53.552;9.980;2023-06-26T03:14:07;18.73;;;16.83;;
17959;SDS011;9105;53.552;9.980;2023-06-26T03:16:32;19.98;;;17.08;;
17959;SDS011;9105;53.552;9.980;2023-06-26T03:18:58;20.83;;;18.77;;
17959;SDS011;9105;53.552;9.980;2023-06-26T03:21:23;20.20;;;18.30;;
17959;SDS011;9105;53.552;9.980;2023-06-26T03:23:49;18.90;;;17.00;;
17959;SDS011;9105;53.552;9.980;2023-06-26T03:26:14;18.25;;;16.55;;
17959;SDS011;9105;53.552;9.980;2023-06-26T03:28:40;18.23;;;16.42;;
17959;SDS011;9105;53.552;9.980;2023-06-26T03:31:07;18.88;;;17.05;;
17959;SDS011;9105;53.552;9.980;2023-06-26T03:33:32;17.08;;;15.30;;
17959;SDS011;9105;53.552;9.980;2023-06-26T03:35:58;17.77;;;15.98;;
17959;SDS011;9105;53.552;9.980;2023-06-26T03:38:24;15.88;;;14.38;;
17959;SDS011;9105;53.552;9.980;2023-06-26T03:40:51;16.17;;;14.57;;
17959;SDS011;9105;53.552;9.980;2023-06-26T03:43:16;16.90;;;15.23;;
17959;SDS011;9105;53.552;9.980;2023-06-26T03:45:41;15.77;;;14.18;;
17959;SDS011;9105;53.552;9.980;2023-06-26T03:48:07;16.50;;;14.90;;
17959;SDS011;9105;53.552;9.980;2023-06-26T03:50:33;15.93;;;14.30;;
17959;SDS011;9105;53.552;9.980;2023-06-26T03:52:58;15.80;;;13.50;;
17959;SDS011;9105;53.552;9.980;2023-06-26T03:55:24;14.68;;;13.02;;
17959;SDS011;9105;53.552;9.980;2023-06-26T03:57:49;15.50;;;13.77;;
17959;SDS011;9105;53.552;9.980;2023-06-26T04:00:15;15.57;;;13.98;;
17959;SDS011;9105;53.552;9.980;2023-06-26T04:02:41;14.80;;;13.50;;
17959;SDS011;9105;53.552;9.980;2023-06-26T04:05:06;15.40;;;13.80;;
17959;SDS011;9105;53.552;9.980;2023-06-26T04:07:32;14.63;;;13.15;;
17959;SDS011;9105;53.552;9.980;2023-06-26T04:09:57;15.15;;;13.23;;
17959;SDS011;9105;53.552;9.980;2023-06-26T04:12:23;15.38;;;12.52;;
17959;SDS011;9105;53.552;9.980;2023-06-26T04:14:48;15.05;;;13.45;;
17959;SDS011;9105;53.552;9.980;2023-06-26T04:17:14;13.55;;;12.25;;
17959;SDS011;9105;53.552;9.980;2023-06-26T04:19:39;14.55;;;11.95;;
17959;SDS011;9105;53.552;9.980;2023-06-26T04:22:05;13.95;;;12.45;;
17959;SDS011;9105;53.552;9.980;2023-06-26T04:24:30;13.57;;;11.38;;
17959;SDS011;9105;53.552;9.980;2023-06-26T04:26:56;11.80;;;10.50;;
17959;SDS011;9105;53.552;9.980;2023-06-26T04:29:22;11.95;;;10.73;;
17959;SDS011;9105;53.552;9.980;2023-06-26T04:31:50;13.13;;;11.00;;
17959;SDS011;9105;53.552;9.980;2023-06-26T04:34:16;14.23;;;10.45;;
17959;SDS011;9105;53.552;9.980;2023-06-26T04:36:42;12.50;;;10.27;;
17959;SDS011;9105;53.552;9.980;2023-06-26T04:39:13;11.70;;;10.50;;
17959;SDS011;9105;53.552;9.980;2023-06-26T04:41:40;12.85;;;10.02;;
17959;SDS011;9105;53.552;9.980;2023-06-26T04:44:05;11.02;;;9.93;;
17959;SDS011;9105;53.552;9.980;2023-06-26T04:46:31;10.98;;;9.88;;
17959;SDS011;9105;53.552;9.980;2023-06-26T04:48:56;10.35;;;9.35;;
17959;SDS011;9105;53.552;9.980;2023-06-26T04:51:23;10.60;;;9.45;;
17959;SDS011;9105;53.552;9.980;2023-06-26T04:53:53;10.82;;;9.40;;
17959;SDS011;9105;53.552;9.980;2023-06-26T04:56:19;11.20;;;9.20;;
17959;SDS011;9105;53.552;9.980;2023-06-26T04:58:44;9.70;;;8.70;;
17959;SDS011;9105;53.552;9.980;2023-06-26T05:01:10;10.80;;;9.73;;
17959;SDS011;9105;53.552;9.980;2023-06-26T05:03:38;10.55;;;9.55;;
17959;SDS011;9105;53.552;9.980;2023-06-26T05:06:04;9.88;;;8.88;;
17959;SDS011;9105;53.552;9.980;2023-06-26T05:08:29;10.20;;;9.23;;
17959;SDS011;9105;53.552;9.980;2023-06-26T05:10:55;10.65;;;9.43;;
17959;SDS011;9105;53.552;9.980;2023-06-26T05:13:23;10.07;;;9.13;;
17959;SDS011;9105;53.552;9.980;2023-06-26T05:15:50;14.95;;;8.65;;
17959;SDS011;9105;53.552;9.980;2023-06-26T05:18:17;8.68;;;7.85;;
17959;SDS011;9105;53.552;9.980;2023-06-26T05:20:43;9.13;;;8.23;;
17959;SDS011;9105;53.552;9.980;2023-06-26T05:23:08;11.07;;;8.65;;
17959;SDS011;9105;53.552;9.980;2023-06-26T05:25:35;11.95;;;8.75;;
17959;SDS011;9105;53.552;9.980;2023-06-26T05:28:02;9.48;;;8.45;;
17959;SDS011;9105;53.552;9.980;2023-06-26T05:30:30;9.13;;;8.23;;
17959;SDS011;9105;53.552;9.980;2023-06-26T05:32:56;9.30;;;8.45;;
17959;SDS011;9105;53.552;9.980;2023-06-26T05:35:24;9.38;;;8.43;;
17959;SDS011;9105;53.552;9.980;2023-06-26T05:40:18;9.20;;;8.30;;
17959;SDS011;9105;53.552;9.980;2023-06-26T05:42:44;10.35;;;8.55;;
17959;SDS011;9105;53.552;9.980;2023-06-26T05:45:10;8.82;;;8.00;;
17959;SDS011;9105;53.552;9.980;2023-06-26T05:47:36;9.13;;;8.20;;
17959;SDS011;9105;53.552;9.980;2023-06-26T05:50:01;9.35;;;8.43;;
17959;SDS011;9105;53.552;9.980;2023-06-26T05:52:27;8.95;;;8.00;;
17959;SDS011;9105;53.552;9.980;2023-06-26T05:54:53;11.20;;;8.30;;
17959;SDS011;9105;53.552;9.980;2023-06-26T05:57:19;12.43;;;8.38;;
17959;SDS011;9105;53.552;9.980;2023-06-26T05:59:45;8.50;;;7.70;;
17959;SDS011;9105;53.552;9.980;2023-06-26T06:02:11;9.63;;;7.82;;
17959;SDS011;9105;53.552;9.980;2023-06-26T06:04:37;9.10;;;8.20;;
17959;SDS011;9105;53.552;9.980;2023-06-26T06:07:03;10.35;;;7.80;;
17959;SDS011;9105;53.552;9.980;2023-06-26T06:09:28;8.43;;;7.63;;
17959;SDS011;9105;53.552;9.980;2023-06-26T06:11:54;9.18;;;8.05;;
17959;SDS011;9105;53.552;9.980;2023-06-26T06:14:19;39.75;;;9.40;;
17959;SDS011;9105;53.552;9.980;2023-06-26T06:16:44;9.23;;;8.13;;
17959;SDS011;9105;53.552;9.980;2023-06-26T06:19:10;12.30;;;10.32;;
17959;SDS011;9105;53.552;9.980;2023-06-26T06:21:38;11.20;;;7.85;;
17959;SDS011;9105;53.552;9.980;2023-06-26T06:24:03;9.43;;;8.15;;
17959;SDS011;9105;53.552;9.980;2023-06-26T06:26:29;11.65;;;7.88;;
17959;SDS011;9105;53.552;9.980;2023-06-26T06:28:54;8.60;;;7.80;;
17959;SDS011;9105;53.552;9.980;2023-06-26T06:31:20;8.48;;;7.70;;
17959;SDS011;9105;53.552;9.980;2023-06-26T06:33:45;10.25;;;8.18;;
17959;SDS011;9105;53.552;9.980;2023-06-26T06:36:11;8.70;;;7.78;;
17959;SDS011;9105;53.552;9.980;2023-06-26T06:38:36;11.13;;;7.72;;
17959;SDS011;9105;53.552;9.980;2023-06-26T06:41:02;8.63;;;7.72;;
17959;SDS011;9105;53.552;9.980;2023-06-26T06:43:27;12.25;;;8.30;;
17959;SDS011;9105;53.552;9.980;2023-06-26T06:45:52;9.18;;;8.15;;
17959;SDS011;9105;53.552;9.980;2023-06-26T06:48:18;9.43;;;8.30;;
17959;SDS011;9105;53.552;9.980;2023-06-26T06:50:43;11.05;;;8.38;;
17959;SDS011;9105;53.552;9.980;2023-06-26T06:53:09;9.70;;;8.57;;
17959;SDS011;9105;53.552;9.980;2023-06-26T06:55:34;9.55;;;8.52;;
17959;SDS011;9105;53.552;9.980;2023-06-26T06:58:00;85.68;;;14.52;;
17959;SDS011;9105;53.552;9.980;2023-06-26T07:00:25;12.65;;;7.80;;
17959;SDS011;9105;53.552;9.980;2023-06-26T07:02:52;12.13;;;8.55;;
17959;SDS011;9105;53.552;9.980;2023-06-26T07:05:18;8.93;;;7.40;;
17959;SDS011;9105;53.552;9.980;2023-06-26T07:07:43;13.38;;;7.80;;
17959;SDS011;9105;53.552;9.980;2023-06-26T07:10:10;16.50;;;8.48;;
17959;SDS011;9105;53.552;9.980;2023-06-26T07:12:37;9.70;;;8.55;;
17959;SDS011;9105;53.552;9.980;2023-06-26T07:15:04;188.70;;;84.35;;
17959;SDS011;9105;53.552;9.980;2023-06-26T07:17:32;12.82;;;8.60;;
17959;SDS011;9105;53.552;9.980;2023-06-26T07:19:58;9.43;;;8.07;;
17959;SDS011;9105;53.552;9.980;2023-06-26T07:22:24;9.90;;;8.15;;
17959;SDS011;9105;53.552;9.980;2023-06-26T07:24:50;10.55;;;8.85;;
17959;SDS011;9105;53.552;9.980;2023-06-26T07:27:15;9.82;;;7.90;;
17959;SDS011;9105;53.552;9.980;2023-06-26T07:29:41;9.40;;;8.50;;
17959;SDS011;9105;53.552;9.980;2023-06-26T07:32:07;11.40;;;8.23;;
17959;SDS011;9105;53.552;9.980;2023-06-26T07:34:32;11.35;;;8.10;;
17959;SDS011;9105;53.552;9.980;2023-06-26T07:36:58;8.85;;;7.70;;
17959;SDS011;9105;53.552;9.980;2023-06-26T07:39:24;9.63;;;8.73;;
17959;SDS011;9105;53.552;9.980;2023-06-26T07:41:49;13.30;;;7.60;;
17959;SDS011;9105;53.552;9.980;2023-06-26T07:44:15;9.65;;;8.63;;
17959;SDS011;9105;53.552;9.980;2023-06-26T07:46:40;11.05;;;8.70;;
17959;SDS011;9105;53.552;9.980;2023-06-26T07:49:06;10.88;;;8.32;;
17959;SDS011;9105;53.552;9.980;2023-06-26T07:51:31;9.40;;;8.40;;
17959;SDS011;9105;53.552;9.980;2023-06-26T07:53:57;11.35;;;8.90;;
17959;SDS011;9105;53.552;9.980;2023-06-26T07:56:22;10.10;;;8.45;;
17959;SDS011;9105;53.552;9.980;2023-06-26T07:58:48;12.07;;;8.20;;
17959;SDS011;9105;53.552;9.980;2023-06-26T08:01:13;10.13;;;8.32;;
17959;SDS011;9105;53.552;9.980;2023-06-26T08:03:39;11.73;;;8.55;;
17959;SDS011;9105;53.552;9.980;2023-06-26T08:06:05;8.95;;;8.15;;
17959;SDS011;9105;53.552;9.980;2023-06-26T08:08:30;11.68;;;8.60;;
17959;SDS011;9105;53.552;9.980;2023-06-26T08:10:56;9.73;;;7.95;;
17959;SDS011;9105;53.552;9.980;2023-06-26T08:13:21;9.98;;;8.98;;
17959;SDS011;9105;53.552;9.980;2023-06-26T08:15:47;10.50;;;8.30;;
17959;SDS011;9105;53.552;9.980;2023-06-26T08:18:12;11.88;;;8.32;;
17959;SDS011;9105;53.552;9.980;2023-06-26T08:20:38;12.90;;;8.38;;
17959;SDS011;9105;53.552;9.980;2023-06-26T08:23:04;9.02;;;8.23;;
17959;SDS011;9105;53.552;9.980;2023-06-26T08:25:29;11.27;;;8.40;;
17959;SDS011;9105;53.552;9.980;2023-06-26T08:27:55;11.40;;;8.55;;
17959;SDS011;9105;53.552;9.980;2023-06-26T08:30:21;16.00;;;8.55;;
17959;SDS011;9105;53.552;9.980;2023-06-26T08:32:46;11.82;;;8.07;;
17959;SDS011;9105;53.552;9.980;2023-06-26T08:35:12;13.32;;;8.32;;
17959;SDS011;9105;53.552;9.980;2023-06-26T08:37:38;12.10;;;8.52;;
17959;SDS011;9105;53.552;9.980;2023-06-26T08:40:03;10.90;;;8.40;;
17959;SDS011;9105;53.552;9.980;2023-06-26T08:42:30;9.13;;;8.20;;
17959;SDS011;9105;53.552;9.980;2023-06-26T08:44:55;9.93;;;7.90;;
17959;SDS011;9105;53.552;9.980;2023-06-26T08:47:21;13.93;;;8.25;;
17959;SDS011;9105;53.552;9.980;2023-06-26T08:49:47;11.13;;;8.75;;
17959;SDS011;9105;53.552;9.980;2023-06-26T08:52:36;8.88;;;7.90;;
17959;SDS011;9105;53.552;9.980;2023-06-26T08:55:06;8.93;;;8.02;;
17959;SDS011;9105;53.552;9.980;2023-06-26T08:57:34;9.20;;;8.38;;
17959;SDS011;9105;53.552;9.980;2023-06-26T09:00:00;12.13;;;8.40;;
17959;SDS011;9105;53.552;9.980;2023-06-26T09:02:26;10.43;;;8.20;;
17959;SDS011;9105;53.552;9.980;2023-06-26T09:04:51;9.07;;;8.05;;
17959;SDS011;9105;53.552;9.980;2023-06-26T09:07:17;14.10;;;8.13;;
17959;SDS011;9105;53.552;9.980;2023-06-26T09:09:42;9.35;;;8.20;;
17959;SDS011;9105;53.552;9.980;2023-06-26T09:12:08;10.30;;;8.82;;
17959;SDS011;9105;53.552;9.980;2023-06-26T09:14:35;10.55;;;9.23;;
17959;SDS011;9105;53.552;9.980;2023-06-26T09:17:02;12.10;;;9.43;;
17959;SDS011;9105;53.552;9.980;2023-06-26T09:19:27;10.32;;;9.25;;
17959;SDS011;9105;53.552;9.980;2023-06-26T09:21:53;10.45;;;8.98;;
17959;SDS011;9105;53.552;9.980;2023-06-26T09:24:19;13.65;;;9.88;;
17959;SDS011;9105;53.552;9.980;2023-06-26T09:26:45;11.07;;;9.82;;
17959;SDS011;9105;53.552;9.980;2023-06-26T09:29:11;12.38;;;10.65;;
17959;SDS011;9105;53.552;9.980;2023-06-26T09:31:38;11.75;;;10.30;;
17959;SDS011;9105;53.552;9.980;2023-06-26T09:34:04;13.43;;;10.65;;
17959;SDS011;9105;53.552;9.980;2023-06-26T09:36:30;12.60;;;11.30;;
17959;SDS011;9105;53.552;9.980;2023-06-26T09:39:02;12.00;;;10.57;;
17959;SDS011;9105;53.552;9.980;2023-06-26T09:41:29;15.00;;;12.43;;
17959;SDS011;9105;53.552;9.980;2023-06-26T09:43:56;13.25;;;11.88;;
17959;SDS011;9105;53.552;9.980;2023-06-26T09:48:48;12.52;;;11.27;;
17959;SDS011;9105;53.552;9.980;2023-06-26T09:51:14;16.33;;;12.15;;
17959;SDS011;9105;53.552;9.980;2023-06-26T09:53:42;21.50;;;13.27;;
17959;SDS011;9105;53.552;9.980;2023-06-26T09:56:07;16.70;;;14.15;;
17959;SDS011;9105;53.552;9.980;2023-06-26T09:58:33;16.17;;;13.50;;
17959;SDS011;9105;53.552;9.980;2023-06-26T10:00:58;17.67;;;13.52;;
17959;SDS011;9105;53.552;9.980;2023-06-26T10:03:24;18.27;;;13.20;;
17959;SDS011;9105;53.552;9.980;2023-06-26T10:05:49;14.50;;;12.73;;
17959;SDS011;9105;53.552;9.980;2023-06-26T10:08:15;15.90;;;12.95;;
17959;SDS011;9105;53.552;9.980;2023-06-26T10:10:41;16.27;;;12.68;;
17959;SDS011;9105;53.552;9.980;2023-06-26T10:13:09;26.48;;;12.85;;
17959;SDS011;9105;53.552;9.980;2023-06-26T10:15:37;13.25;;;11.55;;
17959;SDS011;9105;53.552;9.980;2023-06-26T10:18:03;18.80;;;14.73;;
17959;SDS011;9105;53.552;9.980;2023-06-26T10:20:28;16.02;;;14.00;;
17959;SDS011;9105;53.552;9.980;2023-06-26T10:22:55;16.08;;;14.35;;
17959;SDS011;9105;53.552;9.980;2023-06-26T10:25:22;17.52;;;15.25;;
17959;SDS011;9105;53.552;9.980;2023-06-26T10:27:50;20.00;;;16.27;;
17959;SDS011;9105;53.552;9.980;2023-06-26T10:30:20;17.80;;;14.80;;
17959;SDS011;9105;53.552;9.980;2023-06-26T10:32:48;20.52;;;17.48;;
17959;SDS011;9105;53.552;9.980;2023-06-26T10:35:14;17.95;;;16.13;;
17959;SDS011;9105;53.552;9.980;2023-06-26T10:37:47;14.63;;;11.73;;
17959;SDS011;9105;53.552;9.980;2023-06-26T10:40:14;19.25;;;11.63;;
17959;SDS011;9105;53.552;9.980;2023-06-26T10:42:46;11.88;;;9.85;;
17959;SDS011;9105;53.552;9.980;2023-06-26T10:45:19;12.15;;;10.40;;
17959;SDS011;9105;53.552;9.980;2023-06-26T10:47:46;10.75;;;9.52;;
17959;SDS011;9105;53.552;9.980;2023-06-26T10:50:19;14.52;;;9.80;;
17959;SDS011;9105;53.552;9.980;2023-06-26T10:56:01;15.27;;;10.43;;
17959;SDS011;9105;53.552;9.980;2023-06-26T11:03:40;13.07;;;9.82;;
17959;SDS011;9105;53.552;9.980;2023-06-26T11:06:18;10.98;;;9.63;;
17959;SDS011;9105;53.552;9.980;2023-06-26T11:08:51;12.68;;;9.43;;
17959;SDS011;9105;53.552;9.980;2023-06-26T11:11:19;11.80;;;9.77;;
17959;SDS011;9105;53.552;9.980;2023-06-26T11:13:46;12.38;;;9.55;;
17959;SDS011;9105;53.552;9.980;2023-06-26T11:16:13;12.38;;;9.20;;
17959;SDS011;9105;53.552;9.980;2023-06-26T11:18:42;11.68;;;9.20;;
17959;SDS011;9105;53.552;9.980;2023-06-26T11:21:08;10.85;;;9.55;;
17959;SDS011;9105;53.552;9.980;2023-06-26T11:23:37;15.82;;;9.85;;
17959;SDS011;9105;53.552;9.980;2023-06-26T11:28:45;14.10;;;8.93;;
17959;SDS011;9105;53.552;9.980;2023-06-26T11:31:23;13.77;;;8.88;;
17959;SDS011;9105;53.552;9.980;2023-06-26T11:33:49;11.83;;;6.97;;
17959;SDS011;9105;53.552;9.980;2023-06-26T11:36:15;11.00;;;7.68;;
17959;SDS011;9105;53.552;9.980;2023-06-26T11:38:40;9.65;;;6.38;;
17959;SDS011;9105;53.552;9.980;2023-06-26T11:41:06;15.18;;;6.90;;
17959;SDS011;9105;53.552;9.980;2023-06-26T11:43:33;14.25;;;6.32;;
17959;SDS011;9105;53.552;9.980;2023-06-26T11:46:01;12.82;;;6.00;;
17959;SDS011;9105;53.552;9.980;2023-06-26T11:48:27;15.65;;;6.65;;
17959;SDS011;9105;53.552;9.980;2023-06-26T11:50:54;12.85;;;6.43;;
17959;SDS011;9105;53.552;9.980;2023-06-26T11:53:19;16.08;;;6.50;;
17959;SDS011;9105;53.552;9.980;2023-06-26T11:55:45;17.85;;;6.45;;
17959;SDS011;9105;53.552;9.980;2023-06-26T11:58:10;10.40;;;5.35;;
17959;SDS011;9105;53.552;9.980;2023-06-26T12:00:40;11.05;;;5.63;;
17959;SDS011;9105;53.552;9.980;2023-06-26T12:03:07;9.88;;;4.75;;
17959;SDS011;9105;53.552;9.980;2023-06-26T12:05:33;8.38;;;3.88;;
17959;SDS011;9105;53.552;9.980;2023-06-26T12:07:58;14.32;;;4.03;;
17959;SDS011;9105;53.552;9.980;2023-06-26T12:10:26;10.20;;;3.85;;
17959;SDS011;9105;53.552;9.980;2023-06-26T12:12:52;9.88;;;3.70;;
17959;SDS011;9105;53.552;9.980;2023-06-26T12:15:17;10.63;;;3.53;;
17959;SDS011;9105;53.552;9.980;2023-06-26T12:17:44;12.30;;;3.88;;
17959;SDS011;9105;53.552;9.980;2023-06-26T12:20:22;9.10;;;3.05;;
17959;SDS011;9105;53.552;9.980;2023-06-26T12:22:49;15.10;;;4.32;;
17959;SDS011;9105;53.552;9.980;2023-06-26T12:25:14;11.15;;;3.25;;
17959;SDS011;9105;53.552;9.980;2023-06-26T12:27:46;9.85;;;3.42;;
17959;SDS011;9105;53.552;9.980;2023-06-26T12:30:12;10.63;;;3.50;;
17959;SDS011;9105;53.552;9.980;2023-06-26T12:32:37;10.45;;;3.38;;
17959;SDS011;9105;53.552;9.980;2023-06-26T12:35:03;9.50;;;3.22;;
17959;SDS011;9105;53.552;9.980;2023-06-26T12:37:29;12.38;;;3.63;;
17959;SDS011;9105;53.552;9.980;2023-06-26T12:40:02;10.73;;;3.55;;
17959;SDS011;9105;53.552;9.980;2023-06-26T12:42:32;8.82;;;3.38;;
17959;SDS011;9105;53.552;9.980;2023-06-26T12:44:58;11.38;;;3.30;;
17959;SDS011;9105;53.552;9.980;2023-06-26T12:47:25;8.52;;;3.00;;
17959;SDS011;9105;53.552;9.980;2023-06-26T12:52:18;7.25;;;2.92;;
17959;SDS011;9105;53.552;9.980;2023-06-26T12:54:45;12.95;;;3.58;;
17959;SDS011;9105;53.552;9.980;2023-06-26T12:57:12;7.63;;;3.10;;
17959;SDS011;9105;53.552;9.980;2023-06-26T12:59:39;8.70;;;3.10;;
17959;SDS011;9105;53.552;9.980;2023-06-26T13:02:04;8.90;;;2.70;;
17959;SDS011;9105;53.552;9.980;2023-06-26T13:04:30;7.75;;;2.80;;
17959;SDS011;9105;53.552;9.980;2023-06-26T13:06:56;7.32;;;2.63;;
17959;SDS011;9105;53.552;9.980;2023-06-26T13:09:22;7.40;;;2.50;;
17959;SDS011;9105;53.552;9.980;2023-06-26T13:11:49;8.02;;;2.60;;
17959;SDS011;9105;53.552;9.980;2023-06-26T13:14:14;6.18;;;2.63;;
17959;SDS011;9105;53.552;9.980;2023-06-26T13:16:40;6.50;;;2.42;;
17959;SDS011;9105;53.552;9.980;2023-06-26T13:19:06;11.20;;;2.97;;
17959;SDS011;9105;53.552;9.980;2023-06-26T13:21:31;6.93;;;2.70;;
17959;SDS011;9105;53.552;9.980;2023-06-26T13:23:58;7.50;;;2.80;;
17959;SDS011;9105;53.552;9.980;2023-06-26T13:26:24;5.93;;;2.38;;
17959;SDS011;9105;53.552;9.980;2023-06-26T13:28:51;8.27;;;2.85;;
17959;SDS011;9105;53.552;9.980;2023-06-26T13:31:16;7.07;;;2.20;;
17959;SDS011;9105;53.552;9.980;2023-06-26T13:33:42;8.77;;;2.78;;
17959;SDS011;9105;53.552;9.980;2023-06-26T13:36:07;8.73;;;3.05;;
17959;SDS011;9105;53.552;9.980;2023-06-26T13:38:36;8.07;;;2.95;;
17959;SDS011;9105;53.552;9.980;2023-06-26T13:41:05;7.22;;;2.80;;
17959;SDS011;9105;53.552;9.980;2023-06-26T13:43:30;8.07;;;2.90;;
17959;SDS011;9105;53.552;9.980;2023-06-26T13:45:56;10.38;;;3.25;;
17959;SDS011;9105;53.552;9.980;2023-06-26T13:48:22;8.43;;;2.58;;
17959;SDS011;9105;53.552;9.980;2023-06-26T13:50:49;6.88;;;2.70;;
17959;SDS011;9105;53.552;9.980;2023-06-26T13:53:15;7.47;;;2.33;;
17959;SDS011;9105;53.552;9.980;2023-06-26T13:55:41;7.38;;;2.15;;
17959;SDS011;9105;53.552;9.980;2023-06-26T13:58:07;6.85;;;2.72;;
17959;SDS011;9105;53.552;9.980;2023-06-26T14:00:33;8.38;;;2.50;;
17959;SDS011;9105;53.552;9.980;2023-06-26T14:03:02;6.90;;;2.20;;
17959;SDS011;9105;53.552;9.980;2023-06-26T14:05:29;5.53;;;2.53;;
17959;SDS011;9105;53.552;9.980;2023-06-26T14:07:57;6.50;;;2.38;;
17959;SDS011;9105;53.552;9.980;2023-06-26T14:10:23;5.63;;;2.30;;
17959;SDS011;9105;53.552;9.980;2023-06-26T14:12:48;6.60;;;2.30;;
17959;SDS011;9105;53.552;9.980;2023-06-26T14:15:14;4.57;;;2.40;;
17959;SDS011;9105;53.552;9.980;2023-06-26T14:17:40;6.45;;;2.25;;
17959;SDS011;9105;53.552;9.980;2023-06-26T14:20:09;6.68;;;2.10;;
17959;SDS011;9105;53.552;9.980;2023-06-26T14:22:38;8.70;;;2.10;;
17959;SDS011;9105;53.552;9.980;2023-06-26T14:25:05;5.10;;;2.00;;
17959;SDS011;9105;53.552;9.980;2023-06-26T14:27:31;6.22;;;2.30;;
17959;SDS011;9105;53.552;9.980;2023-06-26T14:29:57;7.57;;;2.53;;
17959;SDS011;9105;53.552;9.980;2023-06-26T14:32:28;5.93;;;2.10;;
17959;SDS011;9105;53.552;9.980;2023-06-26T14:34:54;5.97;;;2.33;;
17959;SDS011;9105;53.552;9.980;2023-06-26T14:37:26;4.05;;;2.10;;
17959;SDS011;9105;53.552;9.980;2023-06-26T14:40:22;6.00;;;2.53;;
17959;SDS011;9105;53.552;9.980;2023-06-26T14:42:48;4.95;;;2.40;;
17959;SDS011;9105;53.552;9.980;2023-06-26T14:45:13;4.75;;;1.98;;
17959;SDS011;9105;53.552;9.980;2023-06-26T14:47:39;4.78;;;1.95;;
17959;SDS011;9105;53.552;9.980;2023-06-26T14:50:05;5.97;;;2.20;;
17959;SDS011;9105;53.552;9.980;2023-06-26T14:52:31;5.57;;;2.22;;
17959;SDS011;9105;53.552;9.980;2023-06-26T14:54:56;6.63;;;2.20;;
17959;SDS011;9105;53.552;9.980;2023-06-26T14:57:22;7.75;;;2.33;;
17959;SDS011;9105;53.552;9.980;2023-06-26T14:59:50;3.15;;;2.22;;
17959;SDS011;9105;53.552;9.980;2023-06-26T15:02:16;5.65;;;2.15;;
17959;SDS011;9105;53.552;9.980;2023-06-26T15:04:44;5.70;;;2.00;;